• Join FlightAware (Why Join?)
  • Login
  • US Flag 
01:35AM EDT


 

Airport Tracker/Info


-or-


 

Live Flight TrackerFlight Track Log ✈ DAL5259 ✈ 11-Feb-2014 ✈ KMCO - KRDU

Flight Track Log - Related Links

Times and Time Zones

All times are in EST time to prevent confusion due to time zone crossing. See the DAL5259 flight status page for this flight to view local times or setup timezone preferences in your user account.

Time Position Orientation Groundspeed Altitude Reporting Facility
EST Latitude Longitude Course Direction KTS MPH feet Rate Location/Type
04:00PM 28.4000 -81.3000 139° Southeast 167 192 700  Level Orlando TRACON
04:01PM 28.3833 -81.2833 139° Southeast 187 215 1,600 2,280 Climbing Orlando TRACON
04:02PM 28.3333 -81.2500 150° Southeast 213 245 4,000 2,400 Climbing Orlando TRACON
04:04PM 28.4542 -81.2233 11° North 255 293 9,700 2,220 Climbing Jacksonville Center
04:05PM 28.5358 -81.2481 345° North 270 311 11,500 1,860 Climbing Jacksonville Center
04:06PM 28.6281 -81.2794 343° North 309 356 13,500 2,160 Climbing Jacksonville Center
04:07PM 28.7347 -81.2967 352° North 346 398 15,900 2,100 Climbing Jacksonville Center
04:08PM 28.8353 -81.3211 348° North 362 417 17,800 1,980 Climbing Jacksonville Center
04:09PM 28.9358 -81.3506 346° North 367 422 19,900 1,860 Climbing Jacksonville Center
04:10PM 29.0447 -81.3725 350° North 379 436 21,600 1,680 Climbing Jacksonville Center
04:11PM 29.1533 -81.3947 350° North 385 443 23,300 1,560 Climbing Jacksonville Center
04:12PM 29.2683 -81.4072 355° North 402 463 24,800 1,440 Climbing Jacksonville Center
04:13PM 29.3875 -81.4172 356° North 414 476 26,200 1,260 Climbing Jacksonville Center
04:14PM 29.5044 -81.4275 356° North 414 476 27,400 1,200 Climbing Jacksonville Center
04:15PM 29.6278 -81.4375 356° North 431 496 28,700 1,260 Climbing Jacksonville Center
04:16PM 29.7511 -81.4478 356° North 438 504 30,000 1,260 Climbing Jacksonville Center
04:17PM 29.8786 -81.4625 354° North 445 512 31,300 1,260 Climbing Jacksonville Center
04:18PM 29.9997 -81.4753 355° North 445 512 32,600 1,260 Climbing Jacksonville Center
04:19PM 30.1211 -81.4878 355° North 440 506 33,900 1,260 Climbing Jacksonville Center
04:20PM 30.2422 -81.4981 356° North 440 506 35,200 1,200 Climbing Jacksonville Center
04:21PM 30.3592 -81.5058 357° North 434 499 36,400 900 Climbing Jacksonville Center
04:22PM 30.4803 -81.4944 North 428 493 37,000 300 Climbing Jacksonville Center
04:23PM 30.6053 -81.4856 North 428 493 37,000  Level Jacksonville Center
04:24PM 30.7325 -81.4739 North 445 512 37,000  Level Jacksonville Center
04:25PM 30.8597 -81.4672 North 450 518 37,000  Level Jacksonville Center
04:26PM 30.9869 -81.4531 North 455 524 37,000  Level Jacksonville Center
04:27PM 31.1311 -81.4461 North 470 541 37,000  Level Jacksonville Center
04:28PM 31.2603 -81.4319 North 470 541 37,000  Level Jacksonville Center
04:29PM 31.3936 -81.3983 12° North 477 549 37,000  Level Jacksonville Center
04:30PM 31.5247 -81.3644 12° North 483 556 37,000  Level Jacksonville Center
04:31PM 31.6414 -81.3356 12° North 476 548 37,000  Level Jacksonville Center
04:32PM 31.7828 -81.2967 13° North 476 548 37,000  Level Jacksonville Center
04:33PM 31.9181 -81.2625 12° North 476 548 37,000  Level Jacksonville Center
04:34PM 32.0472 -81.2456 North 471 542 37,000  Level Jacksonville Center
04:35PM 32.1767 -81.2333 North 465 535 37,000  Level Jacksonville Center
04:36PM 32.3036 -81.2189 North 460 529 37,000  Level Jacksonville Center
04:37PM 32.4372 -81.2064 North 460 529 37,000  Level Jacksonville Center
04:38PM 32.5519 -81.1944 North 460 529 37,000  Level Jacksonville Center
04:39PM 32.6978 -81.1794 North 468 539 37,000  Level Jacksonville Center
04:40PM 32.8269 -81.1644 North 468 539 37,000  Level Jacksonville Center
04:41PM 32.9597 -81.1100 19° North 478 550 37,000  Level Jacksonville Center
04:42PM 33.0861 -81.0406 25° Northeast 484 557 37,000  Level Jacksonville Center
04:43PM 33.2164 -80.9683 25° Northeast 496 571 37,000  Level Jacksonville Center
04:44PM 33.3303 -80.9039 25° Northeast 501 577 37,000 -360 Level Jacksonville Center
04:45PM 33.4628 -80.8286 25° Northeast 506 582 36,300 -780 Descending Jacksonville Center
04:46PM 33.5947 -80.7433 28° Northeast 518 596 35,500 -840 Descending Jacksonville Center
04:47PM 33.7247 -80.6528 30° Northeast 530 610 34,700 -840 Descending Jacksonville Center
04:48PM 33.8567 -80.5617 30° Northeast 537 618 33,900 -900 Descending Jacksonville Center
04:49PM 33.9864 -80.4681 31° Northeast 542 624 33,000 -900 Descending Jacksonville Center
04:50PM 34.1158 -80.3767 30° Northeast 542 624 32,100 -900 Descending Jacksonville Center
04:51PM 34.2456 -80.2850 30° Northeast 537 618 31,200 -960 Descending Jacksonville Center
04:52PM 34.3731 -80.1933 31° Northeast 532 612 30,200 -1,020 Descending Jacksonville Center
04:54PM 34.5619 -80.0608 30° Northeast 522 601 28,600 -1,140 Descending Washington Center
04:55PM 34.6842 -79.9714 31° Northeast 522 601 27,400 -1,380 Descending Washington Center
04:56PM 34.8061 -79.8869 30° Northeast 515 593 25,900 -1,500 Descending Washington Center
04:57PM 34.9261 -79.7997 31° Northeast 505 581 24,400 -1,620 Descending Washington Center
04:58PM 35.0458 -79.7144 30° Northeast 498 573 22,700 -2,160 Descending Washington Center
04:59PM 35.1783 -79.6272 28° Northeast 501 577 20,100 -2,160 Descending Washington Center
05:00PM 35.2917 -79.5414 32° Northeast 493 567 18,400 -1,920 Descending Washington Center
05:01PM 35.3942 -79.4700 30° Northeast 444 511 16,200 -1,380 Descending Washington Center
05:01PM 35.4689 -79.4200 29° Northeast 365 420 15,900 -480 Descending Washington Center
05:02PM 35.4711 -79.4125 70° East 390 449 15,800 -1,800 Descending Washington Center
05:03PM 35.5450 -79.3192 46° Northeast 344 396 13,800 -2,040 Descending Washington Center
05:03PM 35.5911 -79.2472 52° Northeast 338 389 12,200 -2,220 Descending Washington Center
05:04PM 35.6044 -79.2247 54° Northeast 339 390 11,600 -1,980 Descending Washington Center
05:04PM 35.6633 -79.2019 17° North 295 339 10,200 -1,800 Descending Washington Center
05:05PM 35.6742 -79.1947 28° Northeast 301 346 9,900 -2,220 Descending Washington Center
05:05PM 35.7156 -79.1353 49° Northeast 294 338 8,000 -2,520 Descending Washington Center
05:06PM 35.7183 -79.1122 82° East 265 305 7,400 -1,260 Descending Washington Center
05:07PM 35.7292 -79.0283 81° East 248 285 6,500 -1,380 Descending Washington Center
05:07PM 35.7536 -78.9706 62° Northeast 224 258 5,000 -1,740 Descending Washington Center
05:08PM 35.7622 -78.9606 43° Northeast 240 276 4,800 -1,500 Descending Washington Center
05:08PM 35.7908 -78.9081 56° Northeast 207 238 3,500 -1,500 Descending Washington Center
05:09PM 35.8256 -78.8633 46° Northeast 166 191 2,100 -1,260 Descending Washington Center
05:10PM 35.8514 -78.8286 47° Northeast 132 152 1,000 -1,140 Descending Washington Center
05:12PM 35.8667 -78.7833 51° Northeast  Level FlightAware Approximate
05:19PM 35.8776 -78.7875 51° Northeast  Level Estimated
05:20PM 35.8776 -78.7875 51° Northeast  Level Estimated